Time;durP1;ratioP1;P1;durP2;ratioP2;P2;SDS_P1;SDS_P2;PMS_P1;PMS_P2;Temp;Humidity;BMP_temperature;BMP_pressure;BME280_temperature;BME280_humidity;BME280_pressure;Samples;Min_cycle;Max_cycle;Signal;HPM_P1;HPM_P2
2021/05/30 00:02:24;;;;;;;4.77;3.90;;;7.60;99.90;;;;;;5038842;28;20639;-83
2021/05/30 00:04:50;;;;;;;4.17;3.50;;;7.50;99.90;;;;;;5038440;28;20191;-83
2021/05/30 00:07:17;;;;;;;7.70;3.90;;;7.60;99.90;;;;;;5036667;28;20184;-83
2021/05/30 00:09:46;;;;;;;3.83;3.00;;;7.60;99.90;;;;;;5036120;28;20210;-83
2021/05/30 00:12:12;;;;;;;3.53;3.00;;;7.60;99.90;;;;;;5038948;28;20235;-83
2021/05/30 00:14:38;;;;;;;4.67;3.43;;;7.60;99.90;;;;;;5037933;28;20172;-84
2021/05/30 00:17:05;;;;;;;5.60;3.43;;;7.60;99.90;;;;;;5037741;28;20589;-83
2021/05/30 00:19:31;;;;;;;4.73;3.27;;;7.50;99.90;;;;;;5037418;28;20184;-83
2021/05/30 00:21:56;;;;;;;4.20;3.20;;;7.50;99.90;;;;;;5038901;28;20241;-83
2021/05/30 00:24:22;;;;;;;6.10;3.90;;;7.40;99.90;;;;;;5039673;28;20200;-83
2021/05/30 00:26:48;;;;;;;6.07;4.83;;;7.30;99.90;;;;;;5040391;28;20213;-83
2021/05/30 00:29:13;;;;;;;5.27;4.17;;;7.30;99.90;;;;;;5043773;28;20184;-83
2021/05/30 00:31:39;;;;;;;4.50;4.00;;;7.30;99.90;;;;;;5036817;28;20176;-83
2021/05/30 00:34:05;;;;;;;4.50;4.00;;;7.30;99.90;;;;;;5035275;28;20180;-83
2021/05/30 00:36:31;;;;;;;4.30;3.77;;;7.30;99.90;;;;;;5035344;28;20202;-83
2021/05/30 00:38:57;;;;;;;5.10;3.67;;;7.20;99.90;;;;;;5035212;28;20216;-83
2021/05/30 00:41:23;;;;;;;4.77;3.83;;;7.20;99.90;;;;;;5037262;28;20174;-83
2021/05/30 00:43:51;;;;;;;5.83;4.70;;;7.10;99.90;;;;;;5037374;28;20186;-83
2021/05/30 00:46:18;;;;;;;5.87;3.50;;;7.00;99.90;;;;;;5044913;28;20682;-83
2021/05/30 00:48:44;;;;;;;6.40;3.60;;;7.00;99.90;;;;;;5037926;28;20190;-83
2021/05/30 00:51:10;;;;;;;3.53;3.17;;;6.90;99.90;;;;;;5038973;28;20227;-83
2021/05/30 00:53:36;;;;;;;3.50;3.20;;;6.90;99.90;;;;;;5037361;28;20179;-83
2021/05/30 00:56:07;;;;;;;3.77;3.13;;;6.90;99.90;;;;;;5037939;28;20195;-83
2021/05/30 00:58:34;;;;;;;5.23;3.30;;;6.80;99.90;;;;;;5038322;28;20180;-83
2021/05/30 01:01:00;;;;;;;3.67;3.30;;;6.80;99.90;;;;;;5039576;28;20213;-84
2021/05/30 01:03:25;;;;;;;7.83;3.53;;;6.80;99.90;;;;;;5039058;28;20238;-83
2021/05/30 01:05:52;;;;;;;5.37;3.50;;;6.80;99.90;;;;;;5038152;28;20198;-83
2021/05/30 01:08:26;;;;;;;4.37;3.03;;;6.80;99.90;;;;;;5039007;28;20177;-83
2021/05/30 01:10:53;;;;;;;3.77;3.30;;;6.80;99.90;;;;;;5039451;28;20204;-83
2021/05/30 01:13:20;;;;;;;4.87;3.47;;;6.80;99.90;;;;;;5046039;28;20176;-83
2021/05/30 01:15:48;;;;;;;3.93;3.30;;;6.80;99.90;;;;;;5039490;28;20195;-83
2021/05/30 01:18:26;;;;;;;4.03;3.50;;;6.80;99.90;;;;;;5048860;28;20205;-83
2021/05/30 01:20:55;;;;;;;4.67;3.40;;;6.70;99.90;;;;;;5037093;28;20164;-83
2021/05/30 01:23:21;;;;;;;5.00;3.67;;;6.70;99.90;;;;;;5035807;28;20175;-83
2021/05/30 01:25:47;;;;;;;5.47;4.97;;;6.70;99.90;;;;;;5035324;28;20222;-83
2021/05/30 01:28:17;;;;;;;5.77;3.23;;;6.80;99.90;;;;;;5037251;28;20711;-83
2021/05/30 01:30:43;;;;;;;4.70;3.47;;;6.80;99.90;;;;;;5037029;28;20200;-83
2021/05/30 01:33:09;;;;;;;4.10;2.93;;;6.80;99.90;;;;;;5036214;28;20176;-83
2021/05/30 01:35:35;;;;;;;4.40;3.40;;;6.70;99.90;;;;;;5035981;28;20274;-83
2021/05/30 01:38:01;;;;;;;3.43;3.13;;;6.70;99.90;;;;;;5037325;28;20179;-83
2021/05/30 01:40:27;;;;;;;4.43;3.10;;;6.70;99.90;;;;;;5038044;28;20184;-83
2021/05/30 01:42:55;;;;;;;5.57;3.27;;;6.70;99.90;;;;;;5040100;28;20655;-83
2021/05/30 01:45:23;;;;;;;4.90;3.60;;;6.70;99.90;;;;;;5040121;28;20257;-83
2021/05/30 01:47:49;;;;;;;4.00;3.50;;;6.60;99.90;;;;;;5041329;28;20182;-83
2021/05/30 01:50:21;;;;;;;6.93;3.47;;;6.60;99.90;;;;;;5040480;28;20206;-83
2021/05/30 01:52:48;;;;;;;3.40;3.10;;;6.60;99.90;;;;;;5039856;28;20176;-83
2021/05/30 01:55:23;;;;;;;3.60;2.90;;;6.50;99.90;;;;;;5039545;28;20195;-83
2021/05/30 01:57:51;;;;;;;4.00;3.37;;;6.50;99.90;;;;;;5040341;28;20253;-83
2021/05/30 02:00:17;;;;;;;3.80;3.40;;;6.40;99.90;;;;;;5040238;28;20273;-83
2021/05/30 02:02:46;;;;;;;3.87;3.00;;;6.40;99.90;;;;;;5042048;28;20175;-83
2021/05/30 02:05:12;;;;;;;4.07;3.43;;;6.20;99.90;;;;;;5040852;28;20291;-83
2021/05/30 02:07:39;;;;;;;7.10;3.60;;;6.20;99.90;;;;;;5040482;28;20186;-83
2021/05/30 02:10:07;;;;;;;3.90;3.00;;;6.20;99.90;;;;;;5041624;28;20222;-83
2021/05/30 02:12:33;;;;;;;3.60;3.30;;;6.20;99.90;;;;;;5040848;28;20262;-83
2021/05/30 02:14:59;;;;;;;3.80;3.20;;;6.20;99.90;;;;;;5040454;28;20225;-83
2021/05/30 02:17:26;;;;;;;3.67;3.23;;;6.20;99.90;;;;;;5041384;28;20179;-83
2021/05/30 02:19:52;;;;;;;5.23;3.30;;;6.20;99.90;;;;;;5042221;28;20517;-83
2021/05/30 02:22:18;;;;;;;3.87;3.37;;;6.20;99.90;;;;;;5040427;28;20175;-83
2021/05/30 02:24:45;;;;;;;5.07;3.13;;;6.20;99.90;;;;;;5041344;28;20241;-83
2021/05/30 02:27:11;;;;;;;4.40;3.70;;;6.10;99.90;;;;;;5041433;28;20179;-83
2021/05/30 02:29:43;;;;;;;3.47;3.17;;;6.10;99.90;;;;;;5042967;28;20203;-83
2021/05/30 02:32:12;;;;;;;4.63;3.27;;;6.00;99.90;;;;;;5042676;28;20201;-83
2021/05/30 02:34:41;;;;;;;5.27;3.40;;;6.00;99.90;;;;;;5045364;28;20168;-83
2021/05/30 02:37:08;;;;;;;4.07;3.30;;;6.00;99.90;;;;;;5050252;28;20248;-83
2021/05/30 02:39:34;;;;;;;4.63;3.37;;;5.90;99.90;;;;;;5053792;28;20179;-83
2021/05/30 02:42:00;;;;;;;3.83;3.17;;;5.80;99.90;;;;;;5051632;28;20213;-83
2021/05/30 02:44:25;;;;;;;4.00;3.60;;;5.80;99.90;;;;;;5040003;28;20183;-83
2021/05/30 02:46:51;;;;;;;4.27;3.40;;;5.80;99.90;;;;;;5040699;28;20219;-83
2021/05/30 02:49:18;;;;;;;3.60;3.07;;;5.80;99.90;;;;;;5046750;28;20634;-83
2021/05/30 02:51:43;;;;;;;3.70;3.20;;;5.90;99.90;;;;;;5045407;28;20660;-83
2021/05/30 02:54:10;;;;;;;4.27;3.60;;;5.80;99.90;;;;;;5038868;28;20184;-83
2021/05/30 02:56:36;;;;;;;4.63;3.70;;;5.80;99.90;;;;;;5038610;28;20202;-83
2021/05/30 02:59:01;;;;;;;4.33;3.57;;;5.80;99.90;;;;;;5039152;28;20175;-83
2021/05/30 03:01:27;;;;;;;6.40;3.53;;;5.70;99.90;;;;;;5039449;28;20190;-83
2021/05/30 03:03:53;;;;;;;4.27;3.20;;;5.70;99.90;;;;;;5039036;28;20185;-83
2021/05/30 03:06:23;;;;;;;4.83;3.63;;;5.70;99.90;;;;;;5039017;28;20206;-83
2021/05/30 03:08:49;;;;;;;3.10;2.80;;;5.70;99.90;;;;;;5039251;28;20180;-83
2021/05/30 03:11:15;;;;;;;6.77;3.43;;;5.70;99.90;;;;;;5038261;28;20309;-83
2021/05/30 03:13:41;;;;;;;4.40;3.43;;;5.60;99.90;;;;;;5040928;28;20183;-83
2021/05/30 03:16:06;;;;;;;6.63;3.93;;;5.60;99.90;;;;;;5039823;28;20277;-83
2021/05/30 03:18:32;;;;;;;4.33;3.77;;;5.60;99.90;;;;;;5040213;28;20198;-83
2021/05/30 03:20:58;;;;;;;4.03;3.53;;;5.60;99.90;;;;;;5040424;28;20183;-83
2021/05/30 03:23:23;;;;;;;5.37;3.53;;;5.50;99.90;;;;;;5039262;28;20187;-83
2021/05/30 03:25:49;;;;;;;3.83;3.43;;;5.50;99.90;;;;;;5040164;28;20222;-83
2021/05/30 03:28:15;;;;;;;6.00;3.63;;;5.50;99.90;;;;;;5039408;28;20243;-83
2021/05/30 03:30:40;;;;;;;5.00;3.60;;;5.50;99.90;;;;;;5040499;28;20198;-83
2021/05/30 03:33:06;;;;;;;4.30;3.43;;;5.50;99.90;;;;;;5040351;28;20179;-83
2021/05/30 03:35:32;;;;;;;4.43;3.83;;;5.50;99.90;;;;;;5038533;28;20230;-83
2021/05/30 03:37:58;;;;;;;5.30;3.37;;;5.50;99.90;;;;;;5039487;28;20186;-83
2021/05/30 03:40:36;;;;;;;6.27;3.57;;;5.50;99.90;;;;;;5039665;28;20596;-83
2021/05/30 03:43:01;;;;;;;5.60;4.13;;;5.50;99.90;;;;;;5039004;28;20178;-83
2021/05/30 03:45:27;;;;;;;5.47;3.50;;;5.50;99.90;;;;;;5039473;28;20190;-83
2021/05/30 03:47:53;;;;;;;5.53;3.20;;;5.50;99.90;;;;;;5038908;28;20183;-83
2021/05/30 03:50:19;;;;;;;5.37;3.67;;;5.50;99.90;;;;;;5039334;28;20211;-83
2021/05/30 03:52:46;;;;;;;6.13;3.33;;;5.40;99.90;;;;;;5038836;28;20236;-83
2021/05/30 03:55:12;;;;;;;5.77;3.60;;;5.40;99.90;;;;;;5038464;28;20202;-83
2021/05/30 03:57:39;;;;;;;4.13;3.53;;;5.40;99.90;;;;;;5038555;28;20179;-83
2021/05/30 04:00:10;;;;;;;4.13;3.40;;;5.30;99.90;;;;;;5040345;28;20661;-83
2021/05/30 04:02:36;;;;;;;3.97;3.57;;;5.30;99.90;;;;;;5038618;28;20657;-83
2021/05/30 04:05:02;;;;;;;5.17;3.63;;;5.40;99.90;;;;;;5038406;28;20236;-83
2021/05/30 04:07:28;;;;;;;5.53;3.47;;;5.40;99.90;;;;;;5038550;28;20182;-83
2021/05/30 04:09:54;;;;;;;4.17;3.53;;;5.30;99.90;;;;;;5041830;28;20220;-83
2021/05/30 04:12:19;;;;;;;4.23;3.83;;;5.40;99.90;;;;;;5046609;28;20637;-83
2021/05/30 04:14:45;;;;;;;5.67;3.40;;;5.40;99.90;;;;;;5038376;28;20213;-83
2021/05/30 04:17:10;;;;;;;7.10;4.00;;;5.50;99.90;;;;;;5038161;28;20190;-83
2021/05/30 04:19:36;;;;;;;5.07;4.27;;;5.60;99.90;;;;;;5039780;28;20208;-83
2021/05/30 04:22:02;;;;;;;4.37;3.60;;;5.70;99.90;;;;;;5038894;28;20175;-83
2021/05/30 04:24:28;;;;;;;5.07;3.70;;;5.80;99.90;;;;;;5038109;28;20228;-83
2021/05/30 04:26:53;;;;;;;3.83;3.43;;;5.90;99.90;;;;;;5038213;28;20183;-83
2021/05/30 04:29:19;;;;;;;4.87;3.67;;;6.00;99.90;;;;;;5037639;28;20193;-83
2021/05/30 04:31:45;;;;;;;5.27;3.93;;;6.00;99.90;;;;;;5037682;28;20270;-83
2021/05/30 04:34:10;;;;;;;4.23;3.30;;;6.10;99.90;;;;;;5039365;28;20178;-83
2021/05/30 04:36:36;;;;;;;4.73;3.83;;;6.10;99.90;;;;;;5038194;28;20234;-83
2021/05/30 04:39:03;;;;;;;4.23;3.60;;;6.20;99.90;;;;;;5039319;28;20178;-83
2021/05/30 04:41:28;;;;;;;4.10;3.33;;;6.30;99.90;;;;;;5037408;28;20192;-83
2021/05/30 04:43:54;;;;;;;4.43;3.67;;;6.40;99.90;;;;;;5038938;28;20249;-83
2021/05/30 04:46:20;;;;;;;4.73;3.70;;;6.50;99.90;;;;;;5037639;28;20207;-83
2021/05/30 04:48:46;;;;;;;3.37;3.07;;;6.50;99.90;;;;;;5037898;28;20264;-83
2021/05/30 04:51:13;;;;;;;4.73;3.70;;;6.60;99.90;;;;;;5038372;28;20583;-83
2021/05/30 04:53:41;;;;;;;3.93;3.53;;;6.70;99.90;;;;;;5038925;28;20185;-83
2021/05/30 04:56:08;;;;;;;5.10;3.60;;;6.80;99.90;;;;;;5046025;28;20199;-83
2021/05/30 04:58:34;;;;;;;5.40;4.03;;;6.90;99.90;;;;;;5039047;28;20275;-83
2021/05/30 05:01:01;;;;;;;4.63;3.30;;;7.00;99.90;;;;;;5039958;28;20185;-83
2021/05/30 05:03:27;;;;;;;5.20;3.43;;;7.10;99.90;;;;;;5039329;28;20220;-83
2021/05/30 05:05:54;;;;;;;4.33;3.93;;;7.20;99.90;;;;;;5039428;28;20296;-84
2021/05/30 05:08:23;;;;;;;4.40;4.00;;;7.40;99.90;;;;;;5042277;28;20708;-83
2021/05/30 05:10:50;;;;;;;5.43;4.03;;;7.40;99.90;;;;;;5045090;28;20230;-83
2021/05/30 05:13:17;;;;;;;4.67;4.10;;;7.50;99.90;;;;;;5040139;28;20427;-83
2021/05/30 05:15:47;;;;;;;6.40;4.43;;;7.50;99.90;;;;;;5040871;28;20229;-83
2021/05/30 05:18:15;;;;;;;5.40;4.50;;;7.60;99.90;;;;;;5043476;28;20190;-83
2021/05/30 05:20:41;;;;;;;5.10;4.60;;;7.60;99.90;;;;;;5044866;28;20417;-83
2021/05/30 05:23:07;;;;;;;4.57;4.13;;;7.60;99.90;;;;;;5043148;28;20229;-83
2021/05/30 05:25:35;;;;;;;6.23;4.97;;;7.60;99.90;;;;;;5044036;28;20214;-83
2021/05/30 05:28:04;;;;;;;6.27;3.87;;;7.70;99.90;;;;;;5045133;28;20186;-83
2021/05/30 05:30:30;;;;;;;5.73;4.17;;;7.70;99.90;;;;;;5044375;28;20210;-82
2021/05/30 05:32:57;;;;;;;4.80;3.87;;;7.80;99.90;;;;;;5045737;28;20202;-83
2021/05/30 05:35:23;;;;;;;4.40;4.00;;;;;;;;;;5046730;28;20719;-83
2021/05/30 05:37:56;;;;;;;6.77;4.10;;;7.90;99.90;;;;;;5053432;28;20411;-84
2021/05/30 05:40:23;;;;;;;5.97;4.13;;;8.10;99.90;;;;;;5043256;28;20416;-83
2021/05/30 05:42:50;;;;;;;4.70;4.30;;;8.20;99.90;;;;;;5042795;28;20182;-83
2021/05/30 05:45:17;;;;;;;6.87;4.37;;;8.30;99.90;;;;;;5043130;28;20727;-84
2021/05/30 05:47:44;;;;;;;4.60;4.00;;;8.30;99.90;;;;;;5016627;28;20231;-83
2021/05/30 05:50:14;;;;;;;4.63;4.07;;;8.40;99.90;;;;;;5042403;28;20621;-83
2021/05/30 05:52:41;;;;;;;5.87;3.90;;;8.50;99.90;;;;;;5051959;28;20174;-83
2021/05/30 05:55:08;;;;;;;6.47;4.43;;;8.50;99.90;;;;;;5055776;28;20199;-83
2021/05/30 05:57:39;;;;;;;5.07;3.80;;;8.70;99.90;;;;;;5041962;28;20198;-84
2021/05/30 06:00:13;;;;;;;4.13;3.73;;;8.70;99.90;;;;;;5030115;28;20178;-82
2021/05/30 06:02:38;;;;;;;4.70;4.13;;;8.90;99.90;;;;;;5042121;28;20270;-82
2021/05/30 06:05:08;;;;;;;5.70;3.93;;;9.00;99.90;;;;;;5039740;28;20272;-82
2021/05/30 06:07:34;;;;;;;8.30;4.30;;;9.10;99.90;;;;;;5041140;28;20284;-83
2021/05/30 06:10:00;;;;;;;5.10;4.00;;;9.30;99.90;;;;;;5043863;28;20276;-83
2021/05/30 06:12:26;;;;;;;15.30;4.33;;;9.50;99.90;;;;;;5047406;28;20213;-83
2021/05/30 06:14:51;;;;;;;4.80;4.10;;;9.70;99.90;;;;;;5046103;28;20191;-83
2021/05/30 06:17:17;;;;;;;6.87;4.37;;;9.90;99.90;;;;;;5047709;28;20217;-83
2021/05/30 06:19:43;;;;;;;5.67;4.00;;;10.20;99.90;;;;;;5030937;28;20189;-81
2021/05/30 06:22:09;;;;;;;4.97;3.87;;;10.30;99.90;;;;;;5022527;28;20548;-82
2021/05/30 06:24:36;;;;;;;6.17;4.20;;;10.50;99.90;;;;;;5026908;28;20188;-82
2021/05/30 06:27:03;;;;;;;5.77;3.67;;;10.50;99.90;;;;;;5030875;28;20173;-83
2021/05/30 06:29:29;;;;;;;6.67;3.73;;;10.70;99.90;;;;;;5026719;28;20182;-82
2021/05/30 06:31:55;;;;;;;3.50;2.87;;;10.90;99.90;;;;;;5027131;28;20651;-82
2021/05/30 06:34:21;;;;;;;4.40;3.40;;;10.90;99.90;;;;;;5026615;28;20171;-82
2021/05/30 06:36:49;;;;;;;4.40;3.80;;;11.00;99.90;;;;;;5028754;28;20250;-82
2021/05/30 06:39:15;;;;;;;5.20;3.27;;;11.10;99.90;;;;;;5027421;28;20185;-82
2021/05/30 06:41:41;;;;;;;3.23;2.90;;;11.30;99.90;;;;;;5026881;28;20210;-83
2021/05/30 06:44:06;;;;;;;3.90;3.50;;;11.50;99.90;;;;;;5026078;28;20246;-83
2021/05/30 06:46:32;;;;;;;4.13;3.27;;;11.60;99.90;;;;;;5027917;28;20250;-81
2021/05/30 06:48:58;;;;;;;3.43;2.80;;;11.80;99.90;;;;;;5024821;28;20189;-84
2021/05/30 06:51:29;;;;;;;4.10;3.07;;;11.80;99.90;;;;;;5027888;28;20210;-82
2021/05/30 06:53:56;;;;;;;7.17;3.10;;;11.70;99.90;;;;;;5026732;28;20169;-82
2021/05/30 06:56:22;;;;;;;4.37;3.20;;;11.80;99.90;;;;;;5044335;28;20213;-82
2021/05/30 06:58:48;;;;;;;3.43;2.63;;;11.90;99.90;;;;;;5043285;28;20177;-81
2021/05/30 07:01:16;;;;;;;4.40;3.30;;;12.00;99.90;;;;;;5044304;28;20174;-78
2021/05/30 07:03:42;;;;;;;6.20;3.00;;;12.20;99.90;;;;;;5025452;28;20571;-79
2021/05/30 07:06:08;;;;;;;4.30;3.00;;;12.30;99.90;;;;;;5032262;28;20206;-79
2021/05/30 07:08:34;;;;;;;5.43;3.10;;;12.40;99.90;;;;;;5040873;28;20178;-79
2021/05/30 07:11:00;;;;;;;3.97;2.60;;;12.40;99.90;;;;;;5040347;28;20283;-79
2021/05/30 07:13:26;;;;;;;2.83;2.30;;;12.50;99.90;;;;;;5038629;28;20203;-78
2021/05/30 07:15:52;;;;;;;3.60;2.80;;;12.50;99.90;;;;;;5037674;28;20286;-78
2021/05/30 07:18:19;;;;;;;3.00;2.60;;;12.70;99.90;;;;;;5036831;28;20547;-79
2021/05/30 07:20:46;;;;;;;6.23;3.07;;;12.80;99.90;;;;;;5030334;28;20188;-79
2021/05/30 07:23:12;;;;;;;3.77;2.90;;;12.90;99.90;;;;;;5019186;28;20672;-79
2021/05/30 07:25:38;;;;;;;5.10;3.00;;;13.00;99.90;;;;;;5019301;28;20215;-79
2021/05/30 07:28:05;;;;;;;2.80;2.40;;;13.10;99.90;;;;;;5021099;28;20629;-79
2021/05/30 07:30:31;;;;;;;2.57;2.33;;;13.20;99.90;;;;;;5019837;28;20277;-79
2021/05/30 07:32:58;;;;;;;5.13;3.00;;;13.30;99.90;;;;;;5017149;28;20210;-79
2021/05/30 07:35:24;;;;;;;4.77;2.60;;;13.30;99.90;;;;;;5020144;28;20194;-78
2021/05/30 07:37:50;;;;;;;3.03;2.37;;;13.40;99.90;;;;;;5015011;28;20343;-82
2021/05/30 07:40:16;;;;;;;7.23;2.47;;;13.40;99.90;;;;;;5017883;28;20210;-83
2021/05/30 07:42:42;;;;;;;2.90;2.57;;;13.60;99.90;;;;;;5020983;28;20237;-78
2021/05/30 07:45:08;;;;;;;2.87;2.47;;;13.50;99.90;;;;;;5019633;28;20203;-81
2021/05/30 07:47:34;;;;;;;4.73;2.30;;;13.60;99.90;;;;;;5019860;28;20213;-79
2021/05/30 07:50:00;;;;;;;5.07;1.83;;;13.70;99.90;;;;;;5030510;28;20198;-80
2021/05/30 07:52:25;;;;;;;3.37;2.00;;;13.90;99.90;;;;;;5020176;28;20175;-80
2021/05/30 07:54:51;;;;;;;3.27;1.70;;;14.00;99.90;;;;;;5014416;28;20299;-78
2021/05/30 07:57:17;;;;;;;4.33;1.77;;;14.10;99.90;;;;;;5015040;28;20206;-78
2021/05/30 07:59:43;;;;;;;2.53;2.20;;;14.20;99.90;;;;;;5016688;28;20546;-78
2021/05/30 08:02:08;;;;;;;2.53;1.77;;;14.40;99.90;;;;;;5017699;28;20187;-83
2021/05/30 08:04:34;;;;;;;3.13;1.70;;;14.40;99.90;;;;;;5018169;28;20186;-79
2021/05/30 08:07:00;;;;;;;5.30;1.93;;;14.40;99.90;;;;;;5020788;28;20203;-83
2021/05/30 08:09:26;;;;;;;2.83;1.80;;;14.40;99.90;;;;;;5040602;28;20186;-82
2021/05/30 08:11:54;;;;;;;1.97;1.73;;;14.70;99.90;;;;;;5026062;28;20174;-79
2021/05/30 08:14:21;;;;;;;5.93;2.10;;;15.00;99.90;;;;;;5031256;28;20185;-80
2021/05/30 08:16:47;;;;;;;2.63;1.93;;;15.00;99.90;;;;;;5021395;28;20201;-78
2021/05/30 08:19:14;;;;;;;3.10;1.90;;;15.00;98.90;;;;;;5020284;28;20186;-79
2021/05/30 08:21:41;;;;;;;1.97;1.77;;;15.00;99.90;;;;;;5057158;28;20185;-80
2021/05/30 08:24:07;;;;;;;2.50;2.07;;;15.20;99.10;;;;;;5050253;28;20202;-81
2021/05/30 08:26:32;;;;;;;2.10;1.60;;;15.40;99.90;;;;;;5024801;28;20206;-79
2021/05/30 08:28:58;;;;;;;3.60;1.90;;;15.90;96.40;;;;;;5016287;28;20191;-78
2021/05/30 08:31:24;;;;;;;2.50;1.70;;;16.40;96.40;;;;;;5015473;28;20203;-79
2021/05/30 08:33:49;;;;;;;2.40;1.70;;;17.20;94.70;;;;;;5020049;28;20182;-79
2021/05/30 08:36:15;;;;;;;5.83;2.03;;;17.50;86.40;;;;;;5033073;28;20660;-80
2021/05/30 08:38:41;;;;;;;2.03;1.43;;;17.70;82.40;;;;;;5038786;28;20220;-81
2021/05/30 08:41:07;;;;;;;4.53;1.90;;;18.20;81.90;;;;;;5027513;28;20191;-81
2021/05/30 08:43:33;;;;;;;4.90;1.40;;;18.80;81.10;;;;;;5019959;28;20237;-82
2021/05/30 08:45:58;;;;;;;4.27;2.23;;;18.80;74.90;;;;;;5045015;28;20207;-82
2021/05/30 08:48:24;;;;;;;1.70;1.60;;;18.30;74.10;;;;;;5019136;28;20214;-83
2021/05/30 08:51:03;;;;;;;3.40;1.90;;;18.80;78.80;;;;;;5026312;28;20213;-82
2021/05/30 08:53:30;;;;;;;1.90;1.70;;;19.30;72.50;;;;;;5044590;28;20280;-79
2021/05/30 08:55:56;;;;;;;5.57;1.53;;;19.70;73.60;;;;;;5048807;28;20201;-80
2021/05/30 08:58:22;;;;;;;3.70;1.90;;;19.60;69.30;;;;;;5041817;28;20199;-82
2021/05/30 09:01:07;;;;;;;1.40;1.30;;;18.50;65.00;;;;;;5043042;28;20203;-81
2021/05/30 09:03:32;;;;;;;5.17;1.80;;;17.30;65.60;;;;;;5041816;28;20165;-85
2021/05/30 09:06:14;;;;;;;2.20;1.80;;;17.50;70.00;;;;;;5043342;28;20263;-85
2021/05/30 09:08:42;;;;;;;2.33;1.70;;;18.20;68.10;;;;;;5040192;28;20630;-79
2021/05/30 09:11:08;;;;;;;1.47;1.37;;;18.70;68.50;;;;;;5040869;28;20211;-79
2021/05/30 09:13:52;;;;;;;2.00;1.80;;;18.80;65.00;;;;;;5044432;28;20177;-79
2021/05/30 09:16:21;;;;;;;2.63;1.37;;;18.50;64.70;;;;;;5042128;28;20220;-80
2021/05/30 09:18:46;;;;;;;1.80;1.60;;;17.80;66.30;;;;;;5061386;28;20203;-79
2021/05/30 09:21:14;;;;;;;2.33;1.77;;;17.10;67.40;;;;;;5043712;28;20182;-81
2021/05/30 09:23:42;;;;;;;1.60;1.50;;;16.80;68.10;;;;;;5030354;28;20254;-81
2021/05/30 09:26:16;;;;;;;3.47;1.90;;;17.10;66.90;;;;;;5023935;28;20221;-81
2021/05/30 09:29:08;;;;;;;2.10;1.90;;;17.70;72.50;;;;;;5021820;28;20178;-80
2021/05/30 09:31:52;;;;;;;2.67;1.80;;;18.90;73.00;;;;;;5019693;28;20199;-78
2021/05/30 09:34:34;;;;;;;1.70;1.60;;;19.50;69.40;;;;;;5036724;28;20526;-78
2021/05/30 09:37:02;;;;;;;2.23;1.50;;;19.00;66.60;;;;;;5038522;28;20165;-77
2021/05/30 09:39:48;;;;;;;1.90;1.57;;;19.40;68.10;;;;;;5039652;28;20167;-78
2021/05/30 09:42:34;;;;;;;5.00;2.03;;;19.70;69.10;;;;;;5031032;28;20167;-78
2021/05/30 09:45:02;;;;;;;4.33;2.17;;;19.50;69.10;;;;;;5025677;28;20198;-76
2021/05/30 09:47:34;;;;;;;6.63;2.00;;;19.30;68.50;;;;;;5035136;28;20644;-77
2021/05/30 09:50:00;;;;;;;2.17;1.80;;;18.60;70.00;;;;;;5036682;28;20198;-76
2021/05/30 09:52:40;;;;;;;2.30;1.70;;;18.70;71.40;;;;;;5036847;28;20177;-76
2021/05/30 09:55:19;;;;;;;4.43;2.10;;;19.10;68.90;;;;;;5036888;28;20528;-77
2021/05/30 09:58:15;;;;;;;4.10;2.20;;;19.70;70.30;;;;;;5022265;28;20179;-76
2021/05/30 10:00:56;;;;;;;2.77;1.80;;;20.40;69.00;;;;;;5032025;28;20175;-77
2021/05/30 10:03:22;;;;;;;4.27;1.80;;;21.00;67.00;;;;;;5018018;28;20253;-77
2021/05/30 10:05:48;;;;;;;8.17;1.90;;;21.10;63.30;;;;;;5018273;28;20646;-78
2021/05/30 10:08:17;;;;;;;11.43;2.20;;;21.10;67.10;;;;;;5019756;28;20177;-78
2021/05/30 10:10:43;;;;;;;2.50;2.30;;;20.60;58.60;;;;;;5037735;28;20214;-77
2021/05/30 10:13:10;;;;;;;2.37;2.13;;;20.10;59.80;;;;;;5018374;28;20231;-77
2021/05/30 10:15:37;;;;;;;4.47;1.57;;;19.90;59.40;;;;;;5027411;28;20195;-77
2021/05/30 10:18:28;;;;;;;1.90;1.63;;;19.70;62.10;;;;;;5031601;28;20170;-77
2021/05/30 10:20:56;;;;;;;2.00;1.53;;;19.60;60.80;;;;;;5047513;28;20179;-77
2021/05/30 10:23:22;;;;;;;3.67;1.90;;;19.80;63.90;;;;;;5016401;28;20175;-77
2021/05/30 10:25:48;;;;;;;1.80;1.70;;;19.90;62.40;;;;;;5016661;28;20613;-77
2021/05/30 10:28:21;;;;;;;2.20;1.80;;;20.10;65.80;;;;;;5044838;28;20202;-77
2021/05/30 10:30:51;;;;;;;2.73;1.50;;;20.50;63.60;;;;;;5036393;28;20210;-77
2021/05/30 10:33:19;;;;;;;2.63;1.70;;;21.10;57.90;;;;;;5036495;28;20177;-77
2021/05/30 10:35:49;;;;;;;3.87;1.60;;;21.00;55.80;;;;;;5038306;28;20193;-76
2021/05/30 10:38:50;;;;;;;1.60;1.40;;;19.80;56.50;;;;;;5037465;28;20175;-76
2021/05/30 10:41:22;;;;;;;4.10;1.80;;;18.80;59.60;;;;;;5003638;28;20183;-78
2021/05/30 10:43:48;;;;;;;1.73;1.60;;;19.30;64.20;;;;;;5013934;28;20217;-77
2021/05/30 10:46:14;;;;;;;3.00;1.40;;;20.10;63.10;;;;;;5016899;28;20615;-78
2021/05/30 10:48:41;;;;;;;1.77;1.50;;;20.10;62.90;;;;;;5016662;28;20179;-77
2021/05/30 10:51:25;;;;;;;2.60;1.53;;;20.20;58.20;;;;;;5017502;28;20201;-77
2021/05/30 10:54:05;;;;;;;1.83;1.37;;;20.40;62.80;;;;;;5016566;28;20589;-77
2021/05/30 10:56:37;;;;;;;6.00;1.60;;;19.90;56.10;;;;;;5020496;28;20529;-79
2021/05/30 10:59:09;;;;;;;2.37;2.10;;;19.40;59.60;;;;;;5037159;28;20170;-77
2021/05/30 11:01:34;;;;;;;2.50;2.30;;;19.60;61.90;;;;;;5037849;28;20632;-77
2021/05/30 11:04:28;;;;;;;3.57;2.20;;;19.90;62.60;;;;;;5036656;28;20232;-77
2021/05/30 11:07:05;;;;;;;3.23;2.00;;;19.30;60.50;;;;;;5035943;28;20194;-77
2021/05/30 11:09:54;;;;;;;2.30;2.00;;;19.30;59.60;;;;;;5035236;28;20197;-79
2021/05/30 11:12:23;;;;;;;3.03;2.00;;;18.10;61.10;;;;;;5036473;28;20198;-78
2021/05/30 11:15:12;;;;;;;2.67;1.90;;;19.70;63.30;;;;;;5036317;28;20245;-77
2021/05/30 11:17:59;;;;;;;3.43;2.10;;;19.90;62.70;;;;;;5026937;28;20178;-78
2021/05/30 11:20:39;;;;;;;4.03;1.83;;;21.20;62.60;;;;;;5017527;28;20159;-78
2021/05/30 11:23:13;;;;;;;4.43;1.73;;;22.00;61.30;;;;;;5024010;28;20525;-77
2021/05/30 11:25:48;;;;;;;2.23;2.00;;;22.50;57.10;;;;;;5035199;28;20272;-78
2021/05/30 11:28:14;;;;;;;3.57;2.07;;;22.50;59.40;;;;;;5035117;28;20261;-80
2021/05/30 11:30:48;;;;;;;4.77;2.30;;;22.70;58.40;;;;;;5027719;28;20203;-78
2021/05/30 11:33:26;;;;;;;3.20;2.10;;;22.70;55.90;;;;;;5025111;28;20183;-77
2021/05/30 11:35:59;;;;;;;3.53;2.00;;;22.60;57.60;;;;;;5016141;28;20283;-77
2021/05/30 11:38:53;;;;;;;5.93;2.17;;;23.20;56.00;;;;;;5022997;28;20163;-76
2021/05/30 11:41:21;;;;;;;2.80;2.17;;;23.40;58.90;;;;;;5017549;28;20178;-77
2021/05/30 11:44:12;;;;;;;2.37;2.17;;;23.00;56.90;;;;;;5017863;28;20672;-77
2021/05/30 11:46:47;;;;;;;2.77;2.00;;;23.00;55.40;;;;;;5031165;28;20745;-77
2021/05/30 11:49:19;;;;;;;2.80;2.10;;;21.70;56.30;;;;;;5018361;28;20176;-77
2021/05/30 11:52:05;;;;;;;2.57;2.17;;;20.20;56.30;;;;;;5032698;28;20206;-77
2021/05/30 11:54:52;;;;;;;2.00;1.80;;;19.50;59.10;;;;;;5025383;28;20179;-77
2021/05/30 11:57:22;;;;;;;2.83;2.20;;;19.60;59.40;;;;;;5016113;28;20176;-77
2021/05/30 11:59:56;;;;;;;2.40;2.00;;;19.20;59.20;;;;;;5014856;28;20177;-78
2021/05/30 12:02:30;;;;;;;3.60;2.07;;;19.10;62.40;;;;;;5013371;28;20642;-77
2021/05/30 12:05:00;;;;;;;2.73;2.40;;;19.00;59.40;;;;;;5013169;28;20170;-77
2021/05/30 12:07:26;;;;;;;5.90;2.60;;;18.60;61.30;;;;;;5013467;28;20175;-77
2021/05/30 12:09:55;;;;;;;3.90;2.47;;;18.30;60.20;;;;;;5015026;28;20171;-76
2021/05/30 12:12:42;;;;;;;3.90;2.00;;;18.90;64.60;;;;;;5014663;28;20175;-77
2021/05/30 12:15:20;;;;;;;4.10;2.20;;;20.00;59.80;;;;;;5012848;28;20195;-76
2021/05/30 12:17:54;;;;;;;3.27;2.13;;;20.10;60.00;;;;;;5031312;28;20685;-77
2021/05/30 12:20:25;;;;;;;3.60;2.00;;;20.40;58.60;;;;;;5016589;28;20181;-78
2021/05/30 12:22:51;;;;;;;2.70;2.20;;;20.70;59.40;;;;;;5014820;28;20179;-77
2021/05/30 12:25:19;;;;;;;3.10;2.50;;;20.10;56.90;;;;;;5014433;28;20289;-78
2021/05/30 12:27:45;;;;;;;3.13;2.20;;;19.10;57.20;;;;;;5016434;28;20198;-79
2021/05/30 12:30:12;;;;;;;3.37;2.50;;;18.20;58.60;;;;;;5032417;28;20199;-78
2021/05/30 12:32:38;;;;;;;2.70;2.27;;;17.70;60.00;;;;;;5021528;28;20177;-79
2021/05/30 12:35:04;;;;;;;3.33;2.30;;;19.10;59.60;;;;;;5038027;28;20658;-80
2021/05/30 12:37:44;;;;;;;3.40;2.30;;;20.90;58.20;;;;;;5038983;28;20180;-81
2021/05/30 12:40:13;;;;;;;4.00;2.93;;;22.40;56.20;;;;;;5038874;28;20177;-81
2021/05/30 12:42:40;;;;;;;3.37;2.60;;;23.40;54.00;;;;;;5037402;28;20184;-80
2021/05/30 12:45:10;;;;;;;2.57;1.90;;;23.80;52.60;;;;;;5017795;28;20190;-79
2021/05/30 12:47:44;;;;;;;2.20;2.00;;;22.10;54.10;;;;;;5016976;28;20175;-78
2021/05/30 12:50:12;;;;;;;3.73;2.10;;;22.00;54.30;;;;;;5020558;28;20198;-80
2021/05/30 12:52:49;;;;;;;3.33;2.03;;;22.90;53.50;;;;;;5020333;28;20179;-81
2021/05/30 12:55:16;;;;;;;7.73;2.20;;;23.60;54.00;;;;;;5042830;28;20190;-80
2021/05/30 12:57:47;;;;;;;3.50;2.37;;;23.60;53.90;;;;;;5029169;28;20578;-79
2021/05/30 13:00:37;;;;;;;2.53;1.93;;;21.90;51.80;;;;;;5018691;28;20178;-81
2021/05/30 13:03:10;;;;;;;9.33;2.90;;;21.00;52.10;;;;;;5019067;28;20167;-81